This is the latest recevied weather packets stored in our database for station/object N4OOJ-13. If no packets are shown the sender has not sent any weather packets the latest 10 day(s).
| Time | Temp. | Humidity | Pressure | Rain* | Wind** | Luminosity | Snow |
|---|---|---|---|---|---|---|---|
| 1777572026 | 24.44° C | 74% | 1010.9 hPa | 0 mm | - | - | - |
| 1777571421 | 24.44° C | 74% | 1010.8 hPa | 0 mm | - | - | - |
| 1777570821 | 24.44° C | 73% | 1010.9 hPa | 0 mm | - | - | - |
| 1777570216 | 25° C | 74% | 1010.6 hPa | 0 mm | - | - | - |
| 1777569616 | 24.44° C | 75% | 1010.7 hPa | 0 mm | - | - | - |
| 1777569016 | 24.44° C | 74% | 1010.7 hPa | 0 mm | - | - | - |
| 1777568433 | 25° C | 73% | 1010.7 hPa | 0 mm | - | - | - |
| 1777567826 | 23.89° C | 77% | 1010.7 hPa | 0 mm | - | - | - |
| 1777567221 | 23.89° C | 79% | 1010.7 hPa | 0 mm | - | - | - |
| 1777566618 | 23.33° C | 80% | 1010.8 hPa | 0 mm | - | - | - |
| 1777566024 | 23.33° C | 80% | 1011 hPa | 0 mm | - | - | - |
| 1777565419 | 22.78° C | 81% | 1011 hPa | 0 mm | - | - | - |
| 1777564819 | 22.78° C | 82% | 1011 hPa | 0 mm | - | - | - |
| 1777564233 | 23.33° C | 82% | 1011.1 hPa | 0 mm | - | - | - |
| 1777563633 | 22.78° C | 85% | 1011.3 hPa | 0 mm | - | - | - |
| 1777563031 | 22.22° C | 87% | 1011.3 hPa | 0 mm | - | - | - |
| 1777562431 | 22.22° C | 88% | 1011.6 hPa | 0 mm | - | - | - |
| 1777561824 | 22.22° C | 89% | 1011.6 hPa | 0 mm | - | - | - |
| 1777561219 | 22.22° C | 91% | 1011.6 hPa | 0 mm | - | - | - |
| 1777560618 | 21.67° C | 93% | 1011.6 hPa | 0 mm | - | - | - |
| 1777560025 | 21.67° C | 94% | 1011.7 hPa | 0 mm | - | - | - |
| 1777559418 | 21.67° C | 93% | 1011.7 hPa | 0 mm | - | - | - |
| 1777558819 | 21.67° C | 94% | 1011.9 hPa | 0.25 mm | - | - | - |
| 1777558232 | 21.67° C | 94% | 1011.7 hPa | 0.25 mm | - | - | - |
| 1777557627 | 21.67° C | 96% | 1011.8 hPa | 0.51 mm | - | - | - |
* Rain latest hour (hover to see other rain measurements)
** Current wind speed in m/s (hover to see current wind gust speed)